Time;durP1;ratioP1;P1;durP2;ratioP2;P2;SDS_P1;SDS_P2;PMS_P1;PMS_P2;Temp;Humidity;BMP_temperature;BMP_pressure;BME280_temperature;BME280_humidity;BME280_pressure;Samples;Min_cycle;Max_cycle;Signal;HPM_P1;HPM_P2
2022/10/01 00:01:13;;;;;;;14.02;1.90;;;;;;;11.13;100.00;98341.75;5018876;28;20096;-85
2022/10/01 00:03:40;;;;;;;7.53;1.38;;;;;;;10.95;100.00;98302.16;5034694;28;20133;-84
2022/10/01 00:06:09;;;;;;;9.23;1.65;;;;;;;11.18;100.00;98320.47;5037016;28;20487;-84
2022/10/01 00:08:38;;;;;;;5.93;1.30;;;;;;;11.33;100.00;98355.94;5016820;28;20049;-85
2022/10/01 00:11:08;;;;;;;8.00;1.70;;;;;;;11.39;100.00;98352.81;5018621;28;20494;-84
2022/10/01 00:13:35;;;;;;;11.85;2.00;;;;;;;11.42;100.00;98348.28;5023532;28;20099;-84
2022/10/01 00:16:07;;;;;;;9.82;1.60;;;;;;;11.23;100.00;98335.84;5018734;28;20050;-85
2022/10/01 00:18:39;;;;;;;9.43;2.37;;;;;;;11.29;100.00;98345.81;5017766;28;20717;-85
2022/10/01 00:21:08;;;;;;;11.10;2.10;;;;;;;10.92;100.00;98327.72;5018345;28;20341;-85
2022/10/01 00:23:35;;;;;;;8.80;1.52;;;;;;;11.18;100.00;98318.66;5006263;28;20049;-85
2022/10/01 00:26:20;;;;;;;12.48;1.92;;;;;;;11.61;100.00;98366.00;5028478;28;20045;-85
2022/10/01 00:28:51;;;;;;;5.50;1.33;;;;;;;11.48;100.00;98356.50;5035715;28;20045;-84
2022/10/01 00:31:18;;;;;;;6.90;1.60;;;;;;;11.34;100.00;98346.28;5018796;28;20442;-86
2022/10/01 00:33:45;;;;;;;6.40;1.50;;;;;;;11.32;100.00;98354.25;5037024;28;20053;-86
2022/10/01 00:36:12;;;;;;;8.77;1.48;;;;;;;11.35;100.00;98356.66;5034408;28;20091;-85
2022/10/01 00:38:39;;;;;;;8.05;1.95;;;;;;;11.53;100.00;98369.25;5035633;28;20050;-85
2022/10/01 00:41:07;;;;;;;9.40;1.63;;;;;;;11.18;100.00;98323.09;5016882;28;20046;-85
2022/10/01 00:43:38;;;;;;;6.78;2.03;;;;;;;11.34;100.00;98383.78;5016718;28;20053;-85
2022/10/01 00:46:14;;;;;;;7.20;1.30;;;;;;;11.21;100.00;98356.91;5003304;28;20471;-86
2022/10/01 00:48:59;;;;;;;10.38;2.05;;;;;;;11.33;100.00;98371.66;5010136;28;20419;-85
2022/10/01 00:51:28;;;;;;;8.73;1.42;;;;;;;11.20;100.00;98374.38;5016540;28;20057;-85
2022/10/01 00:54:04;;;;;;;6.72;1.40;;;;;;;11.47;100.00;98367.94;5011645;28;20053;-85
2022/10/01 00:56:31;;;;;;;8.20;1.85;;;;;;;11.48;100.00;98377.47;5016147;28;20046;-86
2022/10/01 00:58:59;;;;;;;5.28;1.25;;;;;;;11.47;100.00;98388.88;5016114;28;20045;-86
2022/10/01 01:01:25;;;;;;;10.32;1.73;;;;;;;11.25;100.00;98381.91;5033852;28;20053;-85
2022/10/01 01:03:53;;;;;;;6.70;1.30;;;;;;;11.37;100.00;98374.88;5033376;28;20053;-85
2022/10/01 01:06:20;;;;;;;4.50;1.20;;;;;;;11.46;100.00;98400.34;5015812;28;20447;-86
2022/10/01 01:08:54;;;;;;;4.32;1.38;;;;;;;11.42;100.00;98395.44;5015231;28;20107;-86
2022/10/01 01:11:33;;;;;;;5.63;1.17;;;;;;;11.40;100.00;98388.56;5033830;28;20458;-86
2022/10/01 01:14:31;;;;;;;5.20;1.38;;;;;;;11.35;100.00;98398.56;5013010;28;20137;-86
2022/10/01 01:17:09;;;;;;;7.95;1.70;;;;;;;11.36;100.00;98381.06;5004598;28;20053;-86
2022/10/01 01:19:51;;;;;;;5.55;1.35;;;;;;;11.50;100.00;98400.94;5015139;28;20107;-86
2022/10/01 01:22:21;;;;;;;8.90;1.40;;;;;;;11.33;100.00;98391.75;5016055;28;20569;-86
2022/10/01 01:25:13;;;;;;;3.78;1.42;;;;;;;11.13;100.00;98367.97;5008636;28;20100;-86
2022/10/01 01:27:42;;;;;;;6.38;1.33;;;;;;;11.52;100.00;98406.88;5015293;28;20454;-84
2022/10/01 01:30:11;;;;;;;5.45;1.05;;;;;;;11.53;100.00;98411.19;5033262;28;20559;-86
2022/10/01 01:32:49;;;;;;;9.63;1.63;;;;;;;11.24;100.00;98377.59;5015581;28;20056;-86
2022/10/01 01:35:33;;;;;;;3.80;1.15;;;;;;;11.26;100.00;98385.34;5015712;28;20049;-85
2022/10/01 01:38:08;;;;;;;7.13;1.45;;;;;;;11.29;100.00;98416.53;5017197;28;20050;-86
2022/10/01 01:40:38;;;;;;;4.60;1.33;;;;;;;11.07;100.00;98385.94;5019668;28;20068;-85
2022/10/01 01:43:09;;;;;;;5.00;1.27;;;;;;;11.05;100.00;98396.53;5015313;28;20053;-85
2022/10/01 01:45:38;;;;;;;5.03;1.10;;;;;;;10.89;100.00;98380.31;5032466;28;20045;-85
2022/10/01 01:48:08;;;;;;;6.18;1.83;;;;;;;10.77;100.00;98356.75;5014822;28;20468;-85
2022/10/01 01:50:42;;;;;;;5.10;1.15;;;;;;;11.06;100.00;98442.72;5032438;28;20099;-83
2022/10/01 01:53:10;;;;;;;2.65;0.90;;;;;;;11.06;100.00;98426.16;5007448;28;20053;-83
2022/10/01 01:55:37;;;;;;;3.40;1.10;;;;;;;11.12;100.00;98430.91;5015179;28;20041;-83
2022/10/01 01:58:04;;;;;;;3.33;1.10;;;;;;;11.06;100.00;98439.25;5014730;28;20495;-83
2022/10/01 02:00:31;;;;;;;4.22;1.33;;;;;;;11.14;100.00;98426.44;5015245;28;20545;-84
2022/10/01 02:02:58;;;;;;;6.13;1.35;;;;;;;11.09;100.00;98445.09;5014676;28;20451;-84
2022/10/01 02:05:31;;;;;;;8.43;1.38;;;;;;;10.98;100.00;98438.06;5015288;28;20046;-83
2022/10/01 02:08:36;;;;;;;3.00;1.48;;;;;;;10.88;100.00;98452.78;5013771;28;20184;-83
2022/10/01 02:11:21;;;;;;;5.30;1.20;;;;;;;10.79;100.00;98448.25;5010522;28;20053;-83
2022/10/01 02:13:51;;;;;;;3.90;1.10;;;;;;;10.72;100.00;98450.50;5015180;28;20680;-83
2022/10/01 02:16:21;;;;;;;5.13;1.20;;;;;;;10.61;100.00;98459.16;5014787;28;20091;-84
2022/10/01 02:18:52;;;;;;;3.80;1.42;;;;;;;10.51;100.00;98455.53;5014405;28;20056;-84
2022/10/01 02:21:39;;;;;;;6.68;1.05;;;;;;;10.48;100.00;98454.91;5014348;28;20053;-82
2022/10/01 02:24:13;;;;;;;6.15;1.30;;;;;;;10.55;100.00;98472.69;5013912;28;20049;-84
2022/10/01 02:26:41;;;;;;;;;;;;;;;10.67;100.00;98472.72;5030445;28;20482;-84
2022/10/01 02:29:12;;;;;;;5.65;0.93;;;;;;;10.45;100.00;98448.97;5014639;28;19924;-83
2022/10/01 02:31:40;;;;;;;3.47;1.00;;;;;;;10.46;100.00;98475.97;5031665;28;20049;-81
2022/10/01 02:34:09;;;;;;;3.78;0.95;;;;;;;10.56;100.00;98474.34;5014198;28;20061;-85
2022/10/01 02:36:40;;;;;;;2.25;0.90;;;;;;;10.52;100.00;98459.00;5014525;28;20053;-83
2022/10/01 02:39:10;;;;;;;4.65;1.27;;;;;;;10.66;100.00;98484.97;5031450;28;20049;-84
2022/10/01 02:41:37;;;;;;;4.65;1.20;;;;;;;10.54;100.00;98485.88;5032333;28;20053;-84
2022/10/01 02:44:31;;;;;;;3.45;1.10;;;;;;;10.52;100.00;98493.00;5032264;28;20045;-83
2022/10/01 02:47:16;;;;;;;4.07;1.10;;;;;;;10.58;100.00;98496.00;5005586;28;20107;-83
2022/10/01 02:49:43;;;;;;;4.28;1.15;;;;;;;10.45;100.00;98476.94;5002948;28;20385;-84
2022/10/01 02:52:51;;;;;;;5.78;1.65;;;;;;;10.50;100.00;98481.81;5014753;28;20107;-84
2022/10/01 02:55:29;;;;;;;7.32;1.25;;;;;;;10.61;100.00;98487.94;5026239;28;20072;-84
2022/10/01 02:57:56;;;;;;;6.05;1.40;;;;;;;10.40;100.00;98464.16;5014188;28;20045;-84
2022/10/01 03:00:25;;;;;;;3.53;1.00;;;;;;;10.71;100.00;98500.31;5032133;28;20432;-84
2022/10/01 03:02:52;;;;;;;6.97;1.65;;;;;;;10.33;100.00;98449.03;5014202;28;20050;-84
2022/10/01 03:05:20;;;;;;;7.82;1.27;;;;;;;10.49;100.00;98496.66;5017894;28;20081;-84
2022/10/01 03:07:47;;;;;;;7.13;1.42;;;;;;;10.47;100.00;98503.81;5011028;28;20057;-84
2022/10/01 03:10:15;;;;;;;5.88;1.90;;;;;;;10.48;100.00;98502.84;5013300;28;20488;-84
2022/10/01 03:12:45;;;;;;;6.72;1.30;;;;;;;10.22;100.00;98497.69;5013476;28;20045;-84
2022/10/01 03:15:14;;;;;;;5.57;1.35;;;;;;;10.27;100.00;98490.34;5014064;28;20049;-84
2022/10/01 03:17:41;;;;;;;5.47;1.00;;;;;;;10.37;100.00;98500.19;5013921;28;20123;-84
2022/10/01 03:20:09;;;;;;;6.93;1.42;;;;;;;10.37;100.00;98487.09;5013201;28;20057;-84
2022/10/01 03:22:35;;;;;;;3.90;1.30;;;;;;;10.40;100.00;98518.28;5006366;28;20103;-84
2022/10/01 03:25:03;;;;;;;6.05;1.20;;;;;;;10.43;100.00;98513.66;5013175;28;20447;-84
2022/10/01 03:27:30;;;;;;;4.22;1.10;;;;;;;10.36;100.00;98488.06;5013689;28;20053;-84
2022/10/01 03:29:56;;;;;;;3.33;1.10;;;;;;;10.19;100.00;98486.63;5014076;28;20053;-84
2022/10/01 03:32:23;;;;;;;4.88;1.30;;;;;;;10.21;100.00;98516.94;5031324;28;20065;-84
2022/10/01 03:34:50;;;;;;;3.85;1.60;;;;;;;10.20;100.00;98541.44;5013102;28;20447;-84
2022/10/01 03:37:17;;;;;;;5.32;1.20;;;;;;;10.06;100.00;98526.72;5013897;28;20053;-85
2022/10/01 03:39:43;;;;;;;3.65;1.20;;;;;;;10.06;100.00;98520.66;5013193;28;20115;-84
2022/10/01 03:42:10;;;;;;;7.25;1.35;;;;;;;10.10;100.00;98521.28;5009873;28;20050;-85
2022/10/01 03:44:37;;;;;;;5.30;1.17;;;;;;;10.00;100.00;98511.44;5012809;28;20107;-84
2022/10/01 03:47:03;;;;;;;2.53;1.00;;;;;;;9.96;100.00;98524.88;5013822;28;20037;-84
2022/10/01 03:49:30;;;;;;;4.65;1.27;;;;;;;9.87;100.00;98544.63;5014092;28;20061;-85
2022/10/01 03:51:58;;;;;;;6.72;1.60;;;;;;;9.81;100.00;98548.53;5005978;28;20108;-84
2022/10/01 03:54:25;;;;;;;7.90;1.30;;;;;;;9.83;100.00;98549.25;5018784;28;20045;-84
2022/10/01 03:56:52;;;;;;;5.85;1.30;;;;;;;9.97;100.00;98574.44;5014448;28;20050;-84
2022/10/01 03:59:19;;;;;;;5.10;1.30;;;;;;;9.82;100.00;98562.41;5014429;28;20045;-84
2022/10/01 04:01:45;;;;;;;5.13;1.42;;;;;;;9.71;100.00;98552.69;5016720;28;20045;-84
2022/10/01 04:04:12;;;;;;;5.72;1.00;;;;;;;9.51;100.00;98567.13;5035427;28;20091;-84
2022/10/01 04:06:39;;;;;;;4.47;1.15;;;;;;;9.40;100.00;98570.47;5035366;28;20465;-84
2022/10/01 04:09:08;;;;;;;5.32;1.10;;;;;;;9.28;100.00;98572.13;5034512;28;20114;-84
2022/10/01 04:11:35;;;;;;;4.80;1.13;;;;;;;9.26;100.00;98575.75;5017677;28;20060;-84
2022/10/01 04:14:02;;;;;;;5.47;1.20;;;;;;;9.08;100.00;98557.78;5017198;28;20571;-83
2022/10/01 04:16:29;;;;;;;4.88;1.27;;;;;;;9.20;100.00;98568.34;5016804;28;20057;-83
2022/10/01 04:18:56;;;;;;;4.65;1.17;;;;;;;9.10;100.00;98575.94;5017531;28;20136;-84
2022/10/01 04:21:22;;;;;;;5.60;1.30;;;;;;;9.15;100.00;98597.38;5035332;28;20042;-84
2022/10/01 04:23:49;;;;;;;4.25;1.10;;;;;;;9.25;100.00;98569.72;5016824;28;20103;-84
2022/10/01 04:26:17;;;;;;;6.78;1.55;;;;;;;9.17;100.00;98585.06;5007492;28;20399;-84
2022/10/01 04:28:45;;;;;;;4.53;1.33;;;;;;;9.29;100.00;98592.06;5016973;28;20111;-84
2022/10/01 04:31:25;;;;;;;6.32;2.00;;;;;;;9.13;100.00;98580.97;5016536;28;20049;-84
2022/10/01 04:33:53;;;;;;;7.72;1.52;;;;;;;9.23;100.00;98589.03;5017184;28;20049;-84
2022/10/01 04:36:21;;;;;;;8.93;1.95;;;;;;;9.19;100.00;98592.78;5016037;28;20053;-84
2022/10/01 04:38:53;;;;;;;10.25;2.00;;;;;;;9.17;100.00;98571.16;5016836;28;20541;-84
2022/10/01 04:41:25;;;;;;;5.88;1.58;;;;;;;9.30;100.00;98593.75;5015875;28;20079;-84
2022/10/01 04:43:51;;;;;;;7.82;1.60;;;;;;;9.27;100.00;98598.34;5013449;28;20099;-84
2022/10/01 04:46:18;;;;;;;7.03;1.65;;;;;;;9.29;100.00;98604.28;5013748;28;20476;-85
2022/10/01 04:48:48;;;;;;;8.00;1.90;;;;;;;9.27;100.00;98609.59;5011864;28;20057;-83
2022/10/01 04:51:15;;;;;;;9.02;2.35;;;;;;;9.11;100.00;98601.13;5010447;28;20506;-83
2022/10/01 04:53:42;;;;;;;4.25;1.10;;;;;;;9.18;100.00;98612.84;5032360;28;20472;-85
2022/10/01 04:56:09;;;;;;;7.30;2.00;;;;;;;8.92;100.00;98606.69;5018275;28;20058;-85
2022/10/01 04:58:37;;;;;;;9.02;2.17;;;;;;;9.04;100.00;98629.41;5018687;28;20049;-83
2022/10/01 05:01:04;;;;;;;10.13;1.65;;;;;;;8.96;100.00;98610.81;5016102;28;20105;-84
2022/10/01 05:03:31;;;;;;;4.55;1.33;;;;;;;9.06;100.00;98626.69;5012016;28;20049;-85
2022/10/01 05:05:58;;;;;;;6.53;1.38;;;;;;;8.93;100.00;98613.59;5010772;28;20049;-84
2022/10/01 05:08:26;;;;;;;12.82;1.73;;;;;;;8.99;100.00;98620.19;5031762;28;20076;-84
2022/10/01 05:10:52;;;;;;;5.57;1.40;;;;;;;9.00;100.00;98632.31;5011569;28;20049;-84
2022/10/01 05:13:19;;;;;;;8.10;1.42;;;;;;;9.01;100.00;98628.75;5008843;28;20049;-86
2022/10/01 05:15:49;;;;;;;11.52;2.08;;;;;;;9.04;100.00;98631.19;5017008;28;20050;-84
2022/10/01 05:18:16;;;;;;;6.40;1.40;;;;;;;8.97;100.00;98612.47;5016024;28;20060;-84
2022/10/01 05:20:43;;;;;;;5.28;1.25;;;;;;;9.05;100.00;98627.66;5008140;28;20108;-85
2022/10/01 05:23:09;;;;;;;5.55;1.40;;;;;;;9.02;100.00;98633.88;5010211;28;20045;-84
2022/10/01 05:25:36;;;;;;;8.88;1.38;;;;;;;9.01;100.00;98631.38;5017879;28;20053;-85
2022/10/01 05:28:04;;;;;;;3.78;1.30;;;;;;;8.93;100.00;98624.88;5009104;28;20095;-84
2022/10/01 05:30:32;;;;;;;5.82;1.60;;;;;;;9.03;100.00;98640.78;5015842;28;20046;-84
2022/10/01 05:33:01;;;;;;;4.30;1.50;;;;;;;9.18;100.00;98656.41;5032240;28;20100;-84
2022/10/01 05:35:28;;;;;;;9.30;1.30;;;;;;;9.23;100.00;98662.97;5011057;28;20057;-83
2022/10/01 05:38:00;;;;;;;7.32;1.50;;;;;;;9.23;100.00;98652.53;5008732;28;20050;-84
2022/10/01 05:40:28;;;;;;;8.23;1.58;;;;;;;9.33;100.00;98668.47;5010441;28;20049;-84
2022/10/01 05:42:57;;;;;;;5.80;1.30;;;;;;;9.09;100.00;98616.88;5005029;28;20049;-84
2022/10/01 05:45:25;;;;;;;4.55;1.50;;;;;;;9.38;100.00;98657.69;5017463;28;20061;-85
2022/10/01 05:47:57;;;;;;;5.72;1.38;;;;;;;9.37;100.00;98664.69;5012124;28;20410;-85
2022/10/01 05:50:24;;;;;;;3.95;1.20;;;;;;;9.47;100.00;98672.75;5031098;28;20695;-84
2022/10/01 05:52:53;;;;;;;6.88;2.08;;;;;;;9.39;100.00;98677.66;5009001;28;20766;-84
2022/10/01 05:55:21;;;;;;;5.32;1.27;;;;;;;9.44;100.00;98686.88;5008153;28;20041;-85
2022/10/01 05:58:00;;;;;;;4.13;1.38;;;;;;;9.41;100.00;98681.84;5014653;28;20044;-84
2022/10/01 06:00:28;;;;;;;6.93;1.40;;;;;;;9.40;100.00;98682.78;5016426;28;20049;-84
2022/10/01 06:02:56;;;;;;;8.07;1.40;;;;;;;9.47;100.00;98688.41;5013981;28;20522;-84
2022/10/01 06:05:24;;;;;;;3.15;1.02;;;;;;;9.42;100.00;98675.69;5004279;28;20057;-84
2022/10/01 06:07:52;;;;;;;3.70;1.20;;;;;;;9.37;100.00;98695.22;5009673;28;20083;-84
2022/10/01 06:10:20;;;;;;;6.90;1.40;;;;;;;9.34;100.00;98688.41;5028127;28;20484;-84
2022/10/01 06:12:47;;;;;;;6.60;1.50;;;;;;;9.39;100.00;98688.94;5007029;28;20084;-83
2022/10/01 06:15:14;;;;;;;5.03;1.70;;;;;;;9.41;100.00;98694.91;5013584;28;20454;-84
2022/10/01 06:17:44;;;;;;;8.15;1.40;;;;;;;9.45;100.00;98705.97;5008983;28;20054;-84
2022/10/01 06:20:17;;;;;;;3.75;1.20;;;;;;;9.45;100.00;98708.59;5012667;28;20461;-83
2022/10/01 06:22:52;;;;;;;6.60;1.90;;;;;;;9.47;100.00;98710.19;5009454;28;20439;-84
2022/10/01 06:25:20;;;;;;;6.28;1.38;;;;;;;9.44;100.00;98706.94;5007016;28;20072;-83
2022/10/01 06:27:56;;;;;;;10.60;1.80;;;;;;;9.47;100.00;98711.94;5012845;28;20053;-84
2022/10/01 06:30:28;;;;;;;5.30;1.45;;;;;;;9.19;100.00;98673.72;5030435;28;20061;-83
2022/10/01 06:33:03;;;;;;;4.32;1.30;;;;;;;9.45;100.00;98719.88;5025728;28;20108;-83
2022/10/01 06:35:31;;;;;;;5.30;1.60;;;;;;;9.62;100.00;98715.34;5033541;28;20083;-82
2022/10/01 06:38:01;;;;;;;5.65;1.40;;;;;;;9.37;100.00;98700.44;5008955;28;20053;-82
2022/10/01 06:40:29;;;;;;;5.30;1.65;;;;;;;9.13;100.00;98654.91;5020153;28;20071;-84
2022/10/01 06:42:59;;;;;;;7.60;1.60;;;;;;;9.26;100.00;98660.19;5020478;28;20052;-84
2022/10/01 06:45:31;;;;;;;4.65;1.10;;;;;;;9.38;100.00;98673.38;5030790;28;20049;-84
2022/10/01 06:48:02;;;;;;;4.57;1.15;;;;;;;9.68;100.00;98720.13;5032325;28;20041;-85
2022/10/01 06:50:33;;;;;;;4.85;1.45;;;;;;;9.49;100.00;98686.53;5024240;28;20522;-84
2022/10/01 06:53:01;;;;;;;7.03;1.63;;;;;;;9.91;100.00;98744.75;5025357;28;20061;-85
2022/10/01 06:55:31;;;;;;;5.93;1.33;;;;;;;9.67;100.00;98715.88;5024111;28;20049;-83
2022/10/01 06:57:58;;;;;;;6.10;1.70;;;;;;;9.79;100.00;98733.34;5010872;28;20054;-83
2022/10/01 07:00:27;;;;;;;3.13;1.20;;;;;;;10.04;100.00;98747.41;5009658;28;20050;-85
2022/10/01 07:02:55;;;;;;;3.63;1.30;;;;;;;9.91;100.00;98733.47;5003111;28;20049;-85
2022/10/01 07:05:23;;;;;;;5.45;1.42;;;;;;;9.86;100.00;98758.16;5013238;28;20107;-83
2022/10/01 07:07:50;;;;;;;5.15;1.60;;;;;;;9.60;100.00;98699.75;5038615;28;20120;-84
2022/10/01 07:10:19;;;;;;;7.05;1.40;;;;;;;10.11;100.00;98772.19;5023046;28;20051;-83
2022/10/01 07:12:47;;;;;;;9.10;2.03;;;;;;;10.09;100.00;98763.59;5004580;28;20057;-85
2022/10/01 07:15:21;;;;;;;8.88;1.73;;;;;;;10.29;100.00;98772.75;5025697;28;20541;-84
2022/10/01 07:17:50;;;;;;;6.63;1.30;;;;;;;10.15;100.00;98746.69;5003519;28;20045;-83
2022/10/01 07:20:20;;;;;;;5.50;1.42;;;;;;;10.39;100.00;98776.44;5008042;28;20096;-84
2022/10/01 07:22:47;;;;;;;7.78;1.65;;;;;;;10.22;100.00;98745.31;5012483;28;20458;-83
2022/10/01 07:25:14;;;;;;;8.93;2.03;;;;;;;10.25;100.00;98756.41;5034652;28;20499;-84
2022/10/01 07:27:41;;;;;;;4.45;1.30;;;;;;;10.49;100.00;98783.66;5017376;28;20651;-84
2022/10/01 07:30:08;;;;;;;10.68;2.08;;;;;;;10.00;100.00;98735.47;5019338;28;20052;-85
2022/10/01 07:32:35;;;;;;;6.22;2.42;;;;;;;10.49;100.00;98791.50;5033498;28;20061;-85
2022/10/01 07:35:03;;;;;;;7.00;1.52;;;;;;;10.21;100.00;98746.25;5015214;28;20459;-85
2022/10/01 07:37:30;;;;;;;8.45;2.28;;;;;;;10.38;100.00;98774.75;5014573;28;20407;-85
2022/10/01 07:39:57;;;;;;;7.20;1.67;;;;;;;10.36;100.00;98760.94;5019632;28;20107;-85
2022/10/01 07:42:25;;;;;;;6.78;1.50;;;;;;;10.29;100.00;98737.88;5052087;28;20558;-85
2022/10/01 07:44:54;;;;;;;11.30;2.15;;;;;;;10.66;100.00;98765.00;5025039;28;20079;-84
2022/10/01 07:47:21;;;;;;;7.80;1.83;;;;;;;10.88;100.00;98802.78;5018809;28;20092;-83
2022/10/01 07:49:48;;;;;;;8.63;1.65;;;;;;;10.66;100.00;98753.69;5029549;28;20045;-85
2022/10/01 07:52:15;;;;;;;9.48;1.92;;;;;;;10.86;100.00;98776.72;5019673;28;20479;-85
2022/10/01 07:54:43;;;;;;;8.32;1.90;;;;;;;10.86;100.00;98781.94;5018198;28;20399;-86
2022/10/01 07:57:10;;;;;;;10.18;2.10;;;;;;;10.78;100.00;98748.47;5047048;28;20044;-85
2022/10/01 07:59:39;;;;;;;6.63;1.70;;;;;;;11.17;100.00;98787.63;5015067;28;20407;-86
2022/10/01 08:02:14;;;;;;;8.75;2.30;;;;;;;11.30;100.00;98819.88;5029066;28;20050;-86
2022/10/01 08:07:32;;;;;;;9.55;1.80;;;;;;;10.70;100.00;98711.50;5034995;28;20479;-85
2022/10/01 08:09:58;;;;;;;6.50;1.80;;;;;;;11.23;100.00;98755.75;5041768;28;20053;-86
2022/10/01 08:12:29;;;;;;;8.30;1.63;;;;;;;11.62;100.00;98805.41;5021835;28;20049;-85
2022/10/01 08:14:58;;;;;;;8.63;2.03;;;;;;;11.51;100.00;98766.84;5036242;28;20100;-86
2022/10/01 08:17:25;;;;;;;11.85;2.15;;;;;;;12.13;100.00;98813.03;5012525;28;20111;-86
2022/10/01 08:19:55;;;;;;;9.35;1.92;;;;;;;12.89;100.00;98818.63;5049424;28;20045;-85
2022/10/01 08:22:21;;;;;;;5.85;1.48;;;;;;;12.70;100.00;98793.81;5027811;28;20052;-90
2022/10/01 08:25:06;;;;;;;8.93;1.40;;;;;;;13.01;100.00;98822.94;5044027;28;20088;-84
2022/10/01 08:27:33;;;;;;;7.32;1.45;;;;;;;12.81;100.00;98798.22;5017558;28;20049;-84
2022/10/01 08:30:03;;;;;;;5.30;1.42;;;;;;;12.82;100.00;98791.16;5031476;28;20056;-85
2022/10/01 08:32:30;;;;;;;8.35;2.17;;;;;;;12.88;100.00;98824.84;5017517;28;20095;-85
2022/10/01 08:35:00;;;;;;;8.95;2.22;;;;;;;12.62;100.00;98796.19;5019459;28;20052;-85
2022/10/01 08:37:28;;;;;;;8.13;1.52;;;;;;;13.63;100.00;98847.00;5051071;28;20048;-86
2022/10/01 08:39:55;;;;;;;12.02;2.97;;;;;;;13.82;100.00;98827.97;5044201;28;20045;-84
2022/10/01 08:42:37;;;;;;;8.30;1.70;;;;;;;14.19;100.00;98841.56;5020117;28;20061;-85
2022/10/01 08:45:12;;;;;;;7.03;1.70;;;;;;;14.60;100.00;98845.19;5021255;28;20463;-84
2022/10/01 08:47:45;;;;;;;12.40;1.98;;;;;;;14.28;100.00;98831.25;5016914;28;20108;-84
2022/10/01 08:50:30;;;;;;;9.57;1.40;;;;;;;14.22;100.00;98822.06;5017474;28;20049;-85
2022/10/01 08:53:01;;;;;;;9.00;1.58;;;;;;;14.09;100.00;98801.16;5022560;28;20052;-83
2022/10/01 08:55:36;;;;;;;7.93;1.92;;;;;;;14.07;100.00;98823.31;5019240;28;20403;-83
2022/10/01 08:58:06;;;;;;;7.40;1.70;;;;;;;14.35;100.00;98806.88;5047593;28;20054;-86
2022/10/01 09:00:37;;;;;;;10.48;1.80;;;;;;;14.48;100.00;98826.94;5028367;28;20107;-83
2022/10/01 09:03:09;;;;;;;7.78;1.80;;;;;;;14.87;100.00;98862.25;5019156;28;20475;-84
2022/10/01 09:05:42;;;;;;;8.30;1.50;;;;;;;14.72;100.00;98871.47;5012445;28;20404;-84
2022/10/01 09:08:15;;;;;;;5.60;1.42;;;;;;;14.59;100.00;98866.41;5032518;28;21383;-83
2022/10/01 09:10:48;;;;;;;7.95;1.30;;;;;;;14.84;100.00;98849.34;5032205;28;20053;-83
2022/10/01 09:13:33;;;;;;;;;;;;;;;14.85;100.00;98860.72;5021422;28;20057;-84
2022/10/01 09:16:00;;;;;;;7.95;1.33;;;;;;;14.70;100.00;98863.69;5021703;28;19979;-85
2022/10/01 09:18:39;;;;;;;4.68;1.10;;;;;;;14.73;100.00;98876.63;5034271;28;20046;-84
2022/10/01 09:21:24;;;;;;;6.63;1.58;;;;;;;14.80;100.00;98871.63;5030020;28;20471;-84
2022/10/01 09:24:16;;;;;;;6.10;1.75;;;;;;;14.48;100.00;98848.81;5012103;28;20061;-84
2022/10/01 09:26:49;;;;;;;3.15;1.00;;;;;;;14.63;100.00;98859.09;5010440;28;20051;-84
2022/10/01 09:29:26;;;;;;;8.93;1.30;;;;;;;14.36;100.00;98849.84;5008032;28;20476;-85
2022/10/01 09:31:55;;;;;;;4.18;1.10;;;;;;;14.38;100.00;98876.91;5020358;28;20055;-84
2022/10/01 09:34:33;;;;;;;4.88;1.23;;;;;;;14.72;100.00;98887.28;5035460;28;20049;-83
2022/10/01 09:37:13;;;;;;;5.07;1.30;;;;;;;14.80;100.00;98855.81;5048075;28;20053;-84
2022/10/01 09:39:45;;;;;;;4.95;1.40;;;;;;;15.04;100.00;98887.16;5018697;28;20057;-84
2022/10/01 09:42:12;;;;;;;6.78;1.50;;;;;;;14.83;100.00;98868.75;5016890;28;20060;-85
2022/10/01 09:44:38;;;;;;;6.05;1.33;;;;;;;14.92;100.00;98873.22;5016794;28;20056;-84
2022/10/01 09:47:17;;;;;;;3.92;1.05;;;;;;;15.34;100.00;98894.22;5018282;28;20107;-84
2022/10/01 09:49:45;;;;;;;5.47;1.40;;;;;;;14.87;100.00;98853.50;5045485;28;20057;-84
2022/10/01 09:52:14;;;;;;;5.25;1.15;;;;;;;15.49;100.00;98915.81;5026149;28;20053;-85
2022/10/01 09:54:51;;;;;;;5.03;1.20;;;;;;;15.37;100.00;98866.78;5017679;28;20049;-85
2022/10/01 09:57:23;;;;;;;5.40;1.33;;;;;;;15.59;100.00;98915.84;5015943;28;20053;-85
2022/10/01 10:00:11;;;;;;;6.10;1.20;;;;;;;15.50;100.00;98922.75;5016978;28;20451;-84
2022/10/01 10:02:40;;;;;;;5.30;1.30;;;;;;;15.34;100.00;98927.69;5037711;28;20053;-86
2022/10/01 10:05:21;;;;;;;5.85;1.30;;;;;;;14.81;100.00;98903.13;5044794;28;20049;-86
2022/10/01 10:07:57;;;;;;;8.50;1.95;;;;;;;14.67;100.00;98866.56;5050180;28;20511;-85
2022/10/01 10:10:34;;;;;;;6.07;1.65;;;;;;;14.89;100.00;98902.50;5018053;28;20045;-84
2022/10/01 10:13:13;;;;;;;10.68;1.55;;;;;;;14.48;100.00;98880.41;5038744;28;20057;-84
2022/10/01 10:15:58;;;;;;;9.65;1.73;;;;;;;15.03;100.00;98930.28;5026745;28;20072;-84
2022/10/01 10:18:34;;;;;;;8.15;1.83;;;;;;;15.06;100.00;98945.03;4994837;28;20056;-83
2022/10/01 10:21:13;;;;;;;6.72;2.00;;;;;;;14.64;100.00;98876.53;5007016;28;20076;-82
2022/10/01 10:23:53;;;;;;;7.78;1.63;;;;;;;14.86;100.00;98950.19;5014793;28;20052;-83
2022/10/01 10:26:42;;;;;;;7.60;1.50;;;;;;;14.61;100.00;98901.34;4994894;28;20161;-82
2022/10/01 10:29:29;;;;;;;6.82;1.17;;;;;;;15.25;100.00;98955.66;4992570;28;20060;-82
2022/10/01 10:31:57;;;;;;;6.65;1.50;;;;;;;15.20;100.00;98920.94;4993062;28;20535;-83
2022/10/01 10:34:39;;;;;;;7.47;1.70;;;;;;;15.21;100.00;98953.41;4998135;28;20100;-84
2022/10/01 10:37:13;;;;;;;4.80;1.15;;;;;;;15.10;100.00;98897.19;5017681;28;20045;-82
2022/10/01 10:39:45;;;;;;;4.97;1.20;;;;;;;15.22;100.00;98866.28;4994717;28;20053;-84
2022/10/01 10:42:17;;;;;;;9.50;1.73;;;;;;;15.25;100.00;98902.94;5011443;28;20396;-83
2022/10/01 10:44:50;;;;;;;6.78;1.58;;;;;;;15.50;100.00;98921.91;5012648;28;20056;-84
2022/10/01 10:47:22;;;;;;;5.55;1.48;;;;;;;15.68;100.00;98948.50;4994864;28;20381;-83
2022/10/01 10:49:51;;;;;;;5.05;1.33;;;;;;;15.61;100.00;98955.28;4995047;28;20100;-82
2022/10/01 10:52:20;;;;;;;9.13;1.95;;;;;;;15.55;100.00;98946.09;4994845;28;20103;-84
2022/10/01 10:54:53;;;;;;;8.23;1.38;;;;;;;15.41;100.00;98928.00;4998617;28;20049;-83
2022/10/01 10:57:32;;;;;;;4.93;1.10;;;;;;;15.21;100.00;98933.19;4988644;28;20059;-85
2022/10/01 11:00:12;;;;;;;8.65;1.40;;;;;;;15.72;100.00;98945.47;5012758;28;20161;-84
2022/10/01 11:03:03;;;;;;;4.32;1.38;;;;;;;16.07;100.00;98960.00;4994923;28;20407;-85
2022/10/01 11:05:38;;;;;;;7.03;1.40;;;;;;;15.79;100.00;98922.03;4994428;28;20050;-85
2022/10/01 11:08:10;;;;;;;7.78;1.73;;;;;;;15.71;100.00;98893.66;4994450;28;20108;-84
2022/10/01 11:11:16;;;;;;;6.10;1.30;;;;;;;16.68;100.00;98964.22;5011497;28;20050;-84
2022/10/01 11:13:58;;;;;;;5.57;1.20;;;;;;;16.69;100.00;98967.69;5000339;28;20045;-85
2022/10/01 11:16:30;;;;;;;3.22;1.13;;;;;;;17.07;100.00;98966.03;5012814;28;20046;-84
2022/10/01 11:19:19;;;;;;;5.53;1.40;;;;;;;16.76;100.00;98926.50;5012663;28;20046;-83
2022/10/01 11:21:52;;;;;;;3.60;1.20;;;;;;;16.87;100.00;98970.50;5017239;28;20042;-82
2022/10/01 11:24:44;;;;;;;7.22;1.10;;;;;;;16.84;100.00;98974.25;5015282;28;20551;-83
2022/10/01 11:27:11;;;;;;;4.43;1.10;;;;;;;16.77;100.00;98981.06;5010202;28;20053;-81
2022/10/01 11:29:47;;;;;;;7.10;1.17;;;;;;;16.95;100.00;98991.78;5004099;28;20058;-82
2022/10/01 11:32:44;;;;;;;5.60;1.33;;;;;;;17.08;100.00;98987.00;4995611;28;20045;-82
2022/10/01 11:35:24;;;;;;;2.67;1.10;;;;;;;16.69;100.00;98989.66;5011646;28;20484;-82
2022/10/01 11:38:10;;;;;;;5.53;1.27;;;;;;;16.51;100.00;98964.91;5009978;28;20553;-82
2022/10/01 11:40:48;;;;;;;2.75;0.95;;;;;;;17.15;100.00;98958.19;5010964;28;20045;-80
2022/10/01 11:43:30;;;;;;;4.00;0.95;;;;;;;17.27;100.00;98980.03;5007779;28;20828;-81
2022/10/01 11:46:10;;;;;;;4.43;1.20;;;;;;;16.91;94.96;98973.69;5007919;28;20050;-82
2022/10/01 11:48:52;;;;;;;2.63;0.95;;;;;;;16.49;94.64;98974.78;4989591;28;20444;-82
2022/10/01 11:51:25;;;;;;;6.03;1.27;;;;;;;17.27;84.62;98967.63;5007518;28;20096;-82